Faust — SLKQ — position and weather

sailwx.info

Track history (hours):
 
Tides and Currents Weather Stations Pressure Air Temp Water Temp Dewpoint Dewpoint Depression Visibility Wind Speed Wind Dir Waves Ship Positions

Faust

Last reported at 2014-Dec-21 04:26 UTC. Time now 2014-Dec-21 05:30 UTC.
Position N 51°56' E 002°38'.

Length 227.8 m; beam 32.3 m; draft 9.5 m.

Type: Cargo ship. MMSI: 266260000.

Date/timePositionNaut miles runAvg speedWind from/ knotsBaromVisibWave heightAir tempDewpointWater temp
2014-Dec-21 04:26N 51°56' E 002°38'4513.7
2014-Dec-21 01:10N 52°31' E 003°23'914.6
2014-Dec-21 00:33N 52°38' E 003°32'1515.3
2014-Dec-20 23:33N 52°50' E 003°48'3215.8
2014-Dec-20 21:33N 53°12' E 004°25'2117.0
2014-Dec-20 20:19N 53°32' E 004°37'1316.3
2014-Dec-20 19:33N 53°44' E 004°43'1616.0
2014-Dec-20 18:33N 53°59' E 004°53'1715.2
2014-Dec-20 17:27N 54°13' E 005°07'1813.9
2014-Dec-20 16:08N 54°23' E 005°33'4913.7
2014-Dec-20 12:33N 54°51' E 006°43'1514.6
2014-Dec-20 11:33N 55°03' E 006°56'1515.1
2014-Dec-20 10:33N 55°17' E 007°06'1515.2
2014-Dec-20 09:33N 55°32' E 007°14'1615.7
2014-Dec-20 08:33N 55°47' E 007°21'1815.8
2014-Dec-20 07:25N 56°04' E 007°32'1415.7
2014-Dec-20 06:31N 56°17' E 007°41'1515.7
2014-Dec-20 05:33N 56°31' E 007°49'1515.1
2014-Dec-20 04:32N 56°46' E 007°58'1414.0
2014-Dec-20 03:32N 56°59' E 008°06'1212.4
2014-Dec-20 02:33N 57°08' E 008°22'1312.8
2014-Dec-20 01:33N 57°17' E 008°39'1413.5
2014-Dec-20 00:33N 57°26' E 008°57'1212.4
2014-Dec-19 23:33N 57°35' E 009°13'1413.3
2014-Dec-19 22:32N 57°39' E 009°38'1414.0
2014-Dec-19 21:33N 57°43' E 010°02'1414.1
2014-Dec-19 20:33N 57°47' E 010°27'1313.3
2014-Dec-19 19:33N 57°48' E 010°52'1514.9
2014-Dec-19 18:33N 57°42' E 011°18'1313.2
2014-Dec-19 17:33N 57°36' E 011°40'8 8.4
2014-Dec-19 16:33N 57°41' E 011°52'0 0.0
2014-Dec-19 15:33N 57°41' E 011°52'0 0.0
2014-Dec-19 14:33N 57°41' E 011°52'0 0.0
2014-Dec-19 13:33N 57°41' E 011°52'0 0.0
2014-Dec-19 12:33N 57°41' E 011°52'0 0.0
2014-Dec-19 11:33N 57°41' E 011°52'0 0.0
2014-Dec-19 10:33N 57°41' E 011°52'0 0.0
2014-Dec-19 09:33N 57°41' E 011°52'0 0.0
2014-Dec-19 08:33N 57°41' E 011°52'0 0.0
2014-Dec-19 07:33N 57°41' E 011°52'0 0.0
2014-Dec-19 06:33N 57°41' E 011°52'0 0.0
2014-Dec-19 05:33N 57°41' E 011°52'0 0.0
2014-Dec-19 04:33N 57°41' E 011°52'0 0.0
2014-Dec-19 03:33N 57°41' E 011°52'0 0.0
2014-Dec-19 02:33N 57°41' E 011°52'0 0.0
2014-Dec-19 01:33N 57°41' E 011°52'0 0.0
2014-Dec-19 00:33N 57°41' E 011°52'0 0.0
2014-Dec-18 23:33N 57°41' E 011°52'0 0.0
2014-Dec-18 22:33N 57°41' E 011°52'0 0.0
2014-Dec-18 21:33N 57°41' E 011°52'0 0.0
2014-Dec-18 20:33N 57°41' E 011°52'0 0.0
2014-Dec-18 19:33N 57°41' E 011°52'0 0.0
2014-Dec-18 18:33N 57°41' E 011°52'0 0.0
2014-Dec-18 17:33N 57°41' E 011°52'3 2.7
2014-Dec-18 16:33N 57°40' E 011°48'1010.4
2014-Dec-18 15:34N 57°38' E 011°28'1110.8
2014-Dec-18 14:33N 57°44' E 011°11'1413.8
2014-Dec-18 13:33N 57°49' E 010°47'1615.6
2014-Dec-18 12:33N 57°46' E 010°19'7815.4
2014-Dec-18 07:28N 57°05' E 008°14'6515.3
2014-Dec-18 03:14N 56°06' E 007°26'1015.2
2014-Dec-18 02:33N 55°56' E 007°20'1515.4
2014-Dec-18 01:33N 55°42' E 007°10'1515.4
2014-Dec-18 00:34N 55°28' E 007°01'1514.9
2014-Dec-17 23:33N 55°13' E 007°01'1515.1
2014-Dec-17 22:33N 54°58' E 007°04'1514.9
2014-Dec-17 21:33N 54°43' E 007°11'1514.6
2014-Dec-17 20:33N 54°29' E 007°17'1414.1
2014-Dec-17 19:33N 54°16' E 007°26'1313.5
2014-Dec-17 18:33N 54°04' E 007°36'1312.7
2014-Dec-17 17:33N 53°53' E 007°47'1111.3
2014-Dec-17 16:33N 53°50' E 008°05'1313.1
2014-Dec-17 15:33N 53°41' E 008°22'10 9.7
2014-Dec-17 14:33N 53°34' E 008°33'1 0.8
2014-Dec-17 13:33N 53°35' E 008°33'0 0.0
2014-Dec-17 12:33N 53°35' E 008°33'0 0.0
2014-Dec-17 11:33N 53°35' E 008°33'0 0.0
2014-Dec-17 10:33N 53°35' E 008°33'0 0.0
2014-Dec-17 09:33N 53°35' E 008°33'0 0.0
2014-Dec-17 08:33N 53°35' E 008°33'0 0.0
2014-Dec-17 07:33N 53°35' E 008°33'0 0.0
2014-Dec-17 06:33N 53°35' E 008°33'0 0.0
2014-Dec-17 05:33N 53°35' E 008°33'0 0.0
2014-Dec-17 04:33N 53°35' E 008°33'0 0.0
2014-Dec-17 03:33N 53°35' E 008°33'0 0.0
2014-Dec-17 02:33N 53°35' E 008°33'0 0.0
2014-Dec-17 01:33N 53°35' E 008°33'0 0.0
2014-Dec-17 00:33N 53°35' E 008°33'0 0.0
2014-Dec-16 23:33N 53°35' E 008°33'0 0.0
2014-Dec-16 22:33N 53°35' E 008°33'0 0.0
2014-Dec-16 21:33N 53°35' E 008°33'0 0.0
2014-Dec-16 20:33N 53°35' E 008°33'0 0.0
2014-Dec-16 19:33N 53°35' E 008°33'0 0.0
2014-Dec-16 18:33N 53°35' E 008°33'0 0.0
2014-Dec-16 17:33N 53°35' E 008°33'0 0.0
2014-Dec-16 16:33N 53°35' E 008°33'0 0.0
2014-Dec-16 15:33N 53°35' E 008°33'0 0.0
2014-Dec-16 14:33N 53°35' E 008°33'0 0.0
2014-Dec-16 13:33N 53°35' E 008°33'0 0.0
2014-Dec-16 12:33N 53°35' E 008°33'0 0.0
2014-Dec-16 11:33N 53°35' E 008°33'0 0.0
2014-Dec-16 10:33N 53°35' E 008°33'0 0.0
2014-Dec-16 09:33N 53°35' E 008°33'0 0.0
2014-Dec-16 08:33N 53°35' E 008°33'0 0.0
2014-Dec-16 07:33N 53°35' E 008°33'0 0.0
2014-Dec-16 06:33N 53°35' E 008°33'0 0.0
2014-Dec-16 05:33N 53°35' E 008°33'0 0.0
2014-Dec-16 04:31N 53°35' E 008°33'0 0.0
2014-Dec-16 03:30N 53°35' E 008°33'0 0.0
2014-Dec-16 02:33N 53°35' E 008°33'0 0.0
2014-Dec-16 01:33N 53°35' E 008°33'1 0.9
2014-Dec-16 00:26N 53°34' E 008°33'5 5.7
2014-Dec-15 23:33N 53°38' E 008°28'1313.0
2014-Dec-15 22:33N 53°46' E 008°11'9 8.7
2014-Dec-15 21:33N 53°51' E 007°59'5 5.2
2014-Dec-15 20:33N 53°52' E 007°50'3 2.6
2014-Dec-15 19:31N 53°55' E 007°50'1 0.7
2014-Dec-15 18:31N 53°55' E 007°50'0 0.0
2014-Dec-15 17:22N 53°55' E 007°51'0 0.1
2014-Dec-15 16:31N 53°55' E 007°51'0 0.1
2014-Dec-15 15:31N 53°55' E 007°51'0 0.0
2014-Dec-15 14:28N 53°55' E 007°51'0 0.0
2014-Dec-15 13:31N 53°55' E 007°51'0 0.0
2014-Dec-15 12:28N 53°55' E 007°51'0 0.0
2014-Dec-15 11:31N 53°55' E 007°51'0 0.0
2014-Dec-15 10:31N 53°55' E 007°51'0 0.0
2014-Dec-15 09:22N 53°55' E 007°51'0 0.0
2014-Dec-15 08:28N 53°55' E 007°51'0 0.1
2014-Dec-15 07:31N 53°55' E 007°51'0 0.1
2014-Dec-15 06:31N 53°55' E 007°50'0 0.0
2014-Dec-15 05:33N 53°55' E 007°50'0 0.1
2014-Dec-15 04:33N 53°55' E 007°51'0 0.1
2014-Dec-15 03:27N 53°55' E 007°50'0 0.0
2014-Dec-15 02:28N 53°55' E 007°50'0 0.0
2014-Dec-15 01:29N 53°55' E 007°50'0 0.1
2014-Dec-15 00:33N 53°55' E 007°50'1010.0
2014-Dec-14 23:32N 53°55' E 007°33'1814.0
2014-Dec-14 22:13N 53°51' E 007°03'913.7
2014-Dec-14 21:32N 53°49' E 006°47'1313.4
2014-Dec-14 20:33N 53°46' E 006°26'1313.2
2014-Dec-14 19:33N 53°42' E 006°04'1313.0
2014-Dec-14 18:33N 53°38' E 005°44'1313.0
2014-Dec-14 17:33N 53°34' E 005°23'1313.0
2014-Dec-14 16:33N 53°30' E 005°02'1313.3
2014-Dec-14 15:34N 53°23' E 004°42'1313.1
2014-Dec-14 14:34N 53°12' E 004°32'1312.9
2014-Dec-14 13:34N 53°00' E 004°23'1313.2
2014-Dec-14 12:33N 52°48' E 004°13'1413.9
2014-Dec-14 11:33N 52°38' E 003°57'1414.1
2014-Dec-14 10:33N 52°29' E 003°40'3514.6
2014-Dec-14 08:09N 52°03' E 003°01'2415.1
2014-Dec-14 06:33N 51°46' E 002°34'1515.3
2014-Dec-14 05:33N 51°34' E 002°18'1414.5
2014-Dec-14 04:33N 51°21' E 002°08'1414.0
2014-Dec-14 03:33N 51°10' E 001°55'1514.7
2014-Dec-14 02:33N 51°00' E 001°37'1413.6
2014-Dec-14 01:33N 50°49' E 001°24'1413.2
2014-Dec-14 00:29N 50°37' E 001°12'1313.6
2014-Dec-13 23:33N 50°29' E 000°56'  
Track history (hours):
 
Tides and Currents Weather Stations Pressure Air Temp Water Temp Dewpoint Dewpoint Depression Visibility Wind Speed Wind Dir Waves Ship Positions

Faust

Last reported at 2014-Dec-21 04:26 UTC. Time now 2014-Dec-21 05:30 UTC.
Position N 51°56' E 002°38'.

Length 227.8 m; beam 32.3 m; draft 9.5 m.

Type: Cargo ship. MMSI: 266260000.

Date/timePositionNaut miles runAvg speedWind from/ knotsBaromVisibWave heightAir tempDewpointWater temp
2014-Dec-21 04:26N 51°56' E 002°38'4513.7
2014-Dec-21 01:10N 52°31' E 003°23'914.6
2014-Dec-21 00:33N 52°38' E 003°32'1515.3
2014-Dec-20 23:33N 52°50' E 003°48'3215.8
2014-Dec-20 21:33N 53°12' E 004°25'2117.0
2014-Dec-20 20:19N 53°32' E 004°37'1316.3
2014-Dec-20 19:33N 53°44' E 004°43'1616.0
2014-Dec-20 18:33N 53°59' E 004°53'1715.2
2014-Dec-20 17:27N 54°13' E 005°07'1813.9
2014-Dec-20 16:08N 54°23' E 005°33'4913.7
2014-Dec-20 12:33N 54°51' E 006°43'1514.6
2014-Dec-20 11:33N 55°03' E 006°56'1515.1
2014-Dec-20 10:33N 55°17' E 007°06'1515.2
2014-Dec-20 09:33N 55°32' E 007°14'1615.7
2014-Dec-20 08:33N 55°47' E 007°21'1815.8
2014-Dec-20 07:25N 56°04' E 007°32'1415.7
2014-Dec-20 06:31N 56°17' E 007°41'1515.7
2014-Dec-20 05:33N 56°31' E 007°49'1515.1
2014-Dec-20 04:32N 56°46' E 007°58'1414.0
2014-Dec-20 03:32N 56°59' E 008°06'1212.4
2014-Dec-20 02:33N 57°08' E 008°22'1312.8
2014-Dec-20 01:33N 57°17' E 008°39'1413.5
2014-Dec-20 00:33N 57°26' E 008°57'1212.4
2014-Dec-19 23:33N 57°35' E 009°13'1413.3
2014-Dec-19 22:32N 57°39' E 009°38'1414.0
2014-Dec-19 21:33N 57°43' E 010°02'1414.1
2014-Dec-19 20:33N 57°47' E 010°27'1313.3
2014-Dec-19 19:33N 57°48' E 010°52'1514.9
2014-Dec-19 18:33N 57°42' E 011°18'1313.2
2014-Dec-19 17:33N 57°36' E 011°40'8 8.4
2014-Dec-19 16:33N 57°41' E 011°52'0 0.0
2014-Dec-19 15:33N 57°41' E 011°52'0 0.0
2014-Dec-19 14:33N 57°41' E 011°52'0 0.0
2014-Dec-19 13:33N 57°41' E 011°52'0 0.0
2014-Dec-19 12:33N 57°41' E 011°52'0 0.0
2014-Dec-19 11:33N 57°41' E 011°52'0 0.0
2014-Dec-19 10:33N 57°41' E 011°52'0 0.0
2014-Dec-19 09:33N 57°41' E 011°52'0 0.0
2014-Dec-19 08:33N 57°41' E 011°52'0 0.0
2014-Dec-19 07:33N 57°41' E 011°52'0 0.0
2014-Dec-19 06:33N 57°41' E 011°52'0 0.0
2014-Dec-19 05:33N 57°41' E 011°52'0 0.0
2014-Dec-19 04:33N 57°41' E 011°52'0 0.0
2014-Dec-19 03:33N 57°41' E 011°52'0 0.0
2014-Dec-19 02:33N 57°41' E 011°52'0 0.0
2014-Dec-19 01:33N 57°41' E 011°52'0 0.0
2014-Dec-19 00:33N 57°41' E 011°52'0 0.0
2014-Dec-18 23:33N 57°41' E 011°52'0 0.0
2014-Dec-18 22:33N 57°41' E 011°52'0 0.0
2014-Dec-18 21:33N 57°41' E 011°52'0 0.0
2014-Dec-18 20:33N 57°41' E 011°52'0 0.0
2014-Dec-18 19:33N 57°41' E 011°52'0 0.0
2014-Dec-18 18:33N 57°41' E 011°52'0 0.0
2014-Dec-18 17:33N 57°41' E 011°52'3 2.7
2014-Dec-18 16:33N 57°40' E 011°48'1010.4
2014-Dec-18 15:34N 57°38' E 011°28'1110.8
2014-Dec-18 14:33N 57°44' E 011°11'1413.8
2014-Dec-18 13:33N 57°49' E 010°47'1615.6
2014-Dec-18 12:33N 57°46' E 010°19'7815.4
2014-Dec-18 07:28N 57°05' E 008°14'6515.3
2014-Dec-18 03:14N 56°06' E 007°26'1015.2
2014-Dec-18 02:33N 55°56' E 007°20'1515.4
2014-Dec-18 01:33N 55°42' E 007°10'1515.4
2014-Dec-18 00:34N 55°28' E 007°01'1514.9
2014-Dec-17 23:33N 55°13' E 007°01'1515.1
2014-Dec-17 22:33N 54°58' E 007°04'1514.9
2014-Dec-17 21:33N 54°43' E 007°11'1514.6
2014-Dec-17 20:33N 54°29' E 007°17'1414.1
2014-Dec-17 19:33N 54°16' E 007°26'1313.5
2014-Dec-17 18:33N 54°04' E 007°36'1312.7
2014-Dec-17 17:33N 53°53' E 007°47'1111.3
2014-Dec-17 16:33N 53°50' E 008°05'1313.1
2014-Dec-17 15:33N 53°41' E 008°22'10 9.7
2014-Dec-17 14:33N 53°34' E 008°33'1 0.8
2014-Dec-17 13:33N 53°35' E 008°33'0 0.0
2014-Dec-17 12:33N 53°35' E 008°33'0 0.0
2014-Dec-17 11:33N 53°35' E 008°33'0 0.0
2014-Dec-17 10:33N 53°35' E 008°33'0 0.0
2014-Dec-17 09:33N 53°35' E 008°33'0 0.0
2014-Dec-17 08:33N 53°35' E 008°33'0 0.0
2014-Dec-17 07:33N 53°35' E 008°33'0 0.0
2014-Dec-17 06:33N 53°35' E 008°33'0 0.0
2014-Dec-17 05:33N 53°35' E 008°33'0 0.0
2014-Dec-17 04:33N 53°35' E 008°33'0 0.0
2014-Dec-17 03:33N 53°35' E 008°33'0 0.0
2014-Dec-17 02:33N 53°35' E 008°33'0 0.0
2014-Dec-17 01:33N 53°35' E 008°33'0 0.0
2014-Dec-17 00:33N 53°35' E 008°33'0 0.0
2014-Dec-16 23:33N 53°35' E 008°33'0 0.0
2014-Dec-16 22:33N 53°35' E 008°33'0 0.0
2014-Dec-16 21:33N 53°35' E 008°33'0 0.0
2014-Dec-16 20:33N 53°35' E 008°33'0 0.0
2014-Dec-16 19:33N 53°35' E 008°33'0 0.0
2014-Dec-16 18:33N 53°35' E 008°33'0 0.0
2014-Dec-16 17:33N 53°35' E 008°33'0 0.0
2014-Dec-16 16:33N 53°35' E 008°33'0 0.0
2014-Dec-16 15:33N 53°35' E 008°33'0 0.0
2014-Dec-16 14:33N 53°35' E 008°33'0 0.0
2014-Dec-16 13:33N 53°35' E 008°33'0 0.0
2014-Dec-16 12:33N 53°35' E 008°33'0 0.0
2014-Dec-16 11:33N 53°35' E 008°33'0 0.0
2014-Dec-16 10:33N 53°35' E 008°33'0 0.0
2014-Dec-16 09:33N 53°35' E 008°33'0 0.0
2014-Dec-16 08:33N 53°35' E 008°33'0 0.0
2014-Dec-16 07:33N 53°35' E 008°33'0 0.0
2014-Dec-16 06:33N 53°35' E 008°33'0 0.0
2014-Dec-16 05:33N 53°35' E 008°33'0 0.0
2014-Dec-16 04:31N 53°35' E 008°33'0 0.0
2014-Dec-16 03:30N 53°35' E 008°33'0 0.0
2014-Dec-16 02:33N 53°35' E 008°33'0 0.0
2014-Dec-16 01:33N 53°35' E 008°33'1 0.9
2014-Dec-16 00:26N 53°34' E 008°33'5 5.7
2014-Dec-15 23:33N 53°38' E 008°28'1313.0
2014-Dec-15 22:33N 53°46' E 008°11'9 8.7
2014-Dec-15 21:33N 53°51' E 007°59'5 5.2
2014-Dec-15 20:33N 53°52' E 007°50'3 2.6
2014-Dec-15 19:31N 53°55' E 007°50'1 0.7
2014-Dec-15 18:31N 53°55' E 007°50'0 0.0
2014-Dec-15 17:22N 53°55' E 007°51'0 0.1
2014-Dec-15 16:31N 53°55' E 007°51'0 0.1
2014-Dec-15 15:31N 53°55' E 007°51'0 0.0
2014-Dec-15 14:28N 53°55' E 007°51'0 0.0
2014-Dec-15 13:31N 53°55' E 007°51'0 0.0
2014-Dec-15 12:28N 53°55' E 007°51'0 0.0
2014-Dec-15 11:31N 53°55' E 007°51'0 0.0
2014-Dec-15 10:31N 53°55' E 007°51'0 0.0
2014-Dec-15 09:22N 53°55' E 007°51'0 0.0
2014-Dec-15 08:28N 53°55' E 007°51'0 0.1
2014-Dec-15 07:31N 53°55' E 007°51'0 0.1
2014-Dec-15 06:31N 53°55' E 007°50'0 0.0
2014-Dec-15 05:33N 53°55' E 007°50'0 0.1
2014-Dec-15 04:33N 53°55' E 007°51'0 0.1
2014-Dec-15 03:27N 53°55' E 007°50'0 0.0
2014-Dec-15 02:28N 53°55' E 007°50'0 0.0
2014-Dec-15 01:29N 53°55' E 007°50'0 0.1
2014-Dec-15 00:33N 53°55' E 007°50'1010.0
2014-Dec-14 23:32N 53°55' E 007°33'1814.0
2014-Dec-14 22:13N 53°51' E 007°03'913.7
2014-Dec-14 21:32N 53°49' E 006°47'1313.4
2014-Dec-14 20:33N 53°46' E 006°26'1313.2
2014-Dec-14 19:33N 53°42' E 006°04'1313.0
2014-Dec-14 18:33N 53°38' E 005°44'1313.0
2014-Dec-14 17:33N 53°34' E 005°23'1313.0
2014-Dec-14 16:33N 53°30' E 005°02'1313.3
2014-Dec-14 15:34N 53°23' E 004°42'1313.1
2014-Dec-14 14:34N 53°12' E 004°32'1312.9
2014-Dec-14 13:34N 53°00' E 004°23'1313.2
2014-Dec-14 12:33N 52°48' E 004°13'1413.9
2014-Dec-14 11:33N 52°38' E 003°57'1414.1
2014-Dec-14 10:33N 52°29' E 003°40'3514.6
2014-Dec-14 08:09N 52°03' E 003°01'2415.1
2014-Dec-14 06:33N 51°46' E 002°34'1515.3
2014-Dec-14 05:33N 51°34' E 002°18'1414.5
2014-Dec-14 04:33N 51°21' E 002°08'1414.0
2014-Dec-14 03:33N 51°10' E 001°55'1514.7
2014-Dec-14 02:33N 51°00' E 001°37'1413.6
2014-Dec-14 01:33N 50°49' E 001°24'1413.2
2014-Dec-14 00:29N 50°37' E 001°12'1313.6
2014-Dec-13 23:33N 50°29' E 000°56'  

Dump ship's entire track history